sensor_id;sensor_type;location;lat;lon;timestamp;P1;P2;P0
12542;PMS3003;6337;49.556;25.594;2023-01-05T00:00:23;29.83;13.60;
12542;PMS3003;6337;49.556;25.594;2023-01-05T00:02:51;23.87;12.33;
12542;PMS3003;6337;49.556;25.594;2023-01-05T00:05:20;24.43;12.83;
12542;PMS3003;6337;49.556;25.594;2023-01-05T00:07:48;21.07;12.73;
12542;PMS3003;6337;49.556;25.594;2023-01-05T00:10:17;25.90;13.50;
12542;PMS3003;6337;49.556;25.594;2023-01-05T00:13:00;21.90;12.93;
12542;PMS3003;6337;49.556;25.594;2023-01-05T00:15:45;22.37;13.70;
12542;PMS3003;6337;49.556;25.594;2023-01-05T00:18:45;15.40;12.23;
12542;PMS3003;6337;49.556;25.594;2023-01-05T00:21:32;23.50;13.77;
12542;PMS3003;6337;49.556;25.594;2023-01-05T00:24:17;25.70;14.90;
12542;PMS3003;6337;49.556;25.594;2023-01-05T00:26:45;24.00;14.30;
12542;PMS3003;6337;49.556;25.594;2023-01-05T00:29:12;21.07;14.10;
12542;PMS3003;6337;49.556;25.594;2023-01-05T00:31:40;20.37;12.47;
12542;PMS3003;6337;49.556;25.594;2023-01-05T00:34:08;16.10;10.07;
12542;PMS3003;6337;49.556;25.594;2023-01-05T00:36:37;16.83;12.47;
12542;PMS3003;6337;49.556;25.594;2023-01-05T00:39:06;14.97;10.93;
12542;PMS3003;6337;49.556;25.594;2023-01-05T00:41:34;17.83;11.70;
12542;PMS3003;6337;49.556;25.594;2023-01-05T00:44:05;19.47;11.10;
12542;PMS3003;6337;49.556;25.594;2023-01-05T00:46:33;18.77;10.67;
12542;PMS3003;6337;49.556;25.594;2023-01-05T00:49:01;19.87;10.53;
12542;PMS3003;6337;49.556;25.594;2023-01-05T00:51:29;18.37;10.87;
12542;PMS3003;6337;49.556;25.594;2023-01-05T00:54:00;11.27;8.80;
12542;PMS3003;6337;49.556;25.594;2023-01-05T00:56:28;18.40;10.30;
12542;PMS3003;6337;49.556;25.594;2023-01-05T00:58:57;19.57;11.47;
12542;PMS3003;6337;49.556;25.594;2023-01-05T01:01:25;17.20;11.10;
12542;PMS3003;6337;49.556;25.594;2023-01-05T01:03:53;17.00;9.90;
12542;PMS3003;6337;49.556;25.594;2023-01-05T01:06:22;27.27;14.30;
12542;PMS3003;6337;49.556;25.594;2023-01-05T01:08:50;17.83;9.33;
12542;PMS3003;6337;49.556;25.594;2023-01-05T01:11:19;16.43;10.50;
12542;PMS3003;6337;49.556;25.594;2023-01-05T01:13:47;22.30;9.77;
12542;PMS3003;6337;49.556;25.594;2023-01-05T01:16:15;13.80;9.50;
12542;PMS3003;6337;49.556;25.594;2023-01-05T01:18:44;15.27;8.87;
12542;PMS3003;6337;49.556;25.594;2023-01-05T01:21:13;14.17;9.17;
12542;PMS3003;6337;49.556;25.594;2023-01-05T01:23:41;12.90;8.23;
12542;PMS3003;6337;49.556;25.594;2023-01-05T01:26:11;12.13;7.40;
12542;PMS3003;6337;49.556;25.594;2023-01-05T01:28:45;13.80;8.03;
12542;PMS3003;6337;49.556;25.594;2023-01-05T01:31:12;11.70;8.53;
12542;PMS3003;6337;49.556;25.594;2023-01-05T01:33:40;11.10;7.40;
12542;PMS3003;6337;49.556;25.594;2023-01-05T01:36:08;12.33;7.77;
12542;PMS3003;6337;49.556;25.594;2023-01-05T01:38:37;10.57;7.17;
12542;PMS3003;6337;49.556;25.594;2023-01-05T01:41:06;11.37;7.07;
12542;PMS3003;6337;49.556;25.594;2023-01-05T01:43:46;14.10;8.13;
12542;PMS3003;6337;49.556;25.594;2023-01-05T01:46:18;9.53;6.93;
12542;PMS3003;6337;49.556;25.594;2023-01-05T01:48:50;13.97;7.80;
12542;PMS3003;6337;49.556;25.594;2023-01-05T01:51:21;15.70;7.93;
12542;PMS3003;6337;49.556;25.594;2023-01-05T01:53:52;12.70;7.73;
12542;PMS3003;6337;49.556;25.594;2023-01-05T01:56:21;15.90;7.87;
12542;PMS3003;6337;49.556;25.594;2023-01-05T01:58:52;10.00;7.97;
12542;PMS3003;6337;49.556;25.594;2023-01-05T02:01:20;10.30;6.67;
12542;PMS3003;6337;49.556;25.594;2023-01-05T02:03:48;12.40;7.17;
12542;PMS3003;6337;49.556;25.594;2023-01-05T02:06:16;9.97;7.27;
12542;PMS3003;6337;49.556;25.594;2023-01-05T02:08:44;8.67;6.40;
12542;PMS3003;6337;49.556;25.594;2023-01-05T02:11:18;15.73;6.30;
12542;PMS3003;6337;49.556;25.594;2023-01-05T02:13:58;13.50;6.63;
12542;PMS3003;6337;49.556;25.594;2023-01-05T02:16:34;6.67;5.37;
12542;PMS3003;6337;49.556;25.594;2023-01-05T02:19:14;6.97;4.97;
12542;PMS3003;6337;49.556;25.594;2023-01-05T02:21:54;9.77;6.00;
12542;PMS3003;6337;49.556;25.594;2023-01-05T02:24:33;13.33;5.63;
12542;PMS3003;6337;49.556;25.594;2023-01-05T02:27:17;7.67;5.00;
12542;PMS3003;6337;49.556;25.594;2023-01-05T02:32:49;2.90;2.70;
12542;PMS3003;6337;49.556;25.594;2023-01-05T02:35:22;7.60;3.60;
12542;PMS3003;6337;49.556;25.594;2023-01-05T02:37:53;3.03;2.53;
12542;PMS3003;6337;49.556;25.594;2023-01-05T02:40:26;2.10;2.00;
12542;PMS3003;6337;49.556;25.594;2023-01-05T02:42:56;2.63;1.80;
12542;PMS3003;6337;49.556;25.594;2023-01-05T02:45:27;1.97;1.53;
12542;PMS3003;6337;49.556;25.594;2023-01-05T02:47:56;1.47;1.00;
12542;PMS3003;6337;49.556;25.594;2023-01-05T02:50:25;1.03;1.03;
12542;PMS3003;6337;49.556;25.594;2023-01-05T02:52:57;0.97;0.97;
12542;PMS3003;6337;49.556;25.594;2023-01-05T02:55:28;0.90;0.90;
12542;PMS3003;6337;49.556;25.594;2023-01-05T02:57:58;0.73;0.73;
12542;PMS3003;6337;49.556;25.594;2023-01-05T03:00:31;0.80;0.80;
12542;PMS3003;6337;49.556;25.594;2023-01-05T03:03:01;0.80;0.80;
12542;PMS3003;6337;49.556;25.594;2023-01-05T03:05:33;0.80;0.80;
12542;PMS3003;6337;49.556;25.594;2023-01-05T03:08:04;0.80;0.80;
12542;PMS3003;6337;49.556;25.594;2023-01-05T03:10:35;0.80;0.80;
12542;PMS3003;6337;49.556;25.594;2023-01-05T03:13:22;2.40;0.80;
12542;PMS3003;6337;49.556;25.594;2023-01-05T03:16:09;0.80;0.80;
12542;PMS3003;6337;49.556;25.594;2023-01-05T03:18:42;0.80;0.80;
12542;PMS3003;6337;49.556;25.594;2023-01-05T03:21:27;0.80;0.80;
12542;PMS3003;6337;49.556;25.594;2023-01-05T03:24:16;0.80;0.80;
12542;PMS3003;6337;49.556;25.594;2023-01-05T03:27:01;0.90;0.90;
12542;PMS3003;6337;49.556;25.594;2023-01-05T03:29:48;1.90;0.90;
12542;PMS3003;6337;49.556;25.594;2023-01-05T03:32:33;0.90;0.90;
12542;PMS3003;6337;49.556;25.594;2023-01-05T03:35:22;0.70;0.70;
12542;PMS3003;6337;49.556;25.594;2023-01-05T03:37:58;0.80;0.80;
12542;PMS3003;6337;49.556;25.594;2023-01-05T03:40:27;2.10;0.80;
12542;PMS3003;6337;49.556;25.594;2023-01-05T03:42:55;1.00;1.00;
12542;PMS3003;6337;49.556;25.594;2023-01-05T03:45:22;0.90;0.90;
12542;PMS3003;6337;49.556;25.594;2023-01-05T03:47:51;0.80;0.80;
12542;PMS3003;6337;49.556;25.594;2023-01-05T03:50:20;0.90;0.90;
12542;PMS3003;6337;49.556;25.594;2023-01-05T03:52:49;1.03;1.03;
12542;PMS3003;6337;49.556;25.594;2023-01-05T03:55:16;0.80;0.80;
12542;PMS3003;6337;49.556;25.594;2023-01-05T03:57:45;0.77;0.77;
12542;PMS3003;6337;49.556;25.594;2023-01-05T04:00:14;0.80;0.80;
12542;PMS3003;6337;49.556;25.594;2023-01-05T04:02:42;0.77;0.77;
12542;PMS3003;6337;49.556;25.594;2023-01-05T04:05:10;0.80;0.80;
12542;PMS3003;6337;49.556;25.594;2023-01-05T04:07:39;0.80;0.80;
12542;PMS3003;6337;49.556;25.594;2023-01-05T04:10:13;7.93;1.57;
12542;PMS3003;6337;49.556;25.594;2023-01-05T04:12:41;0.80;0.80;
12542;PMS3003;6337;49.556;25.594;2023-01-05T04:15:10;0.90;0.90;
12542;PMS3003;6337;49.556;25.594;2023-01-05T04:17:39;0.70;0.70;
12542;PMS3003;6337;49.556;25.594;2023-01-05T04:20:08;0.90;0.90;
12542;PMS3003;6337;49.556;25.594;2023-01-05T04:22:36;0.70;0.70;
12542;PMS3003;6337;49.556;25.594;2023-01-05T04:25:04;0.90;0.90;
12542;PMS3003;6337;49.556;25.594;2023-01-05T04:27:34;0.93;0.93;
12542;PMS3003;6337;49.556;25.594;2023-01-05T04:30:01;0.80;0.80;
12542;PMS3003;6337;49.556;25.594;2023-01-05T04:32:30;1.10;1.00;
12542;PMS3003;6337;49.556;25.594;2023-01-05T04:34:57;0.80;0.80;
12542;PMS3003;6337;49.556;25.594;2023-01-05T04:37:26;1.00;1.00;
12542;PMS3003;6337;49.556;25.594;2023-01-05T04:39:55;0.90;0.90;
12542;PMS3003;6337;49.556;25.594;2023-01-05T04:42:22;0.80;0.80;
12542;PMS3003;6337;49.556;25.594;2023-01-05T04:44:51;0.80;0.80;
12542;PMS3003;6337;49.556;25.594;2023-01-05T04:47:19;0.80;0.80;
12542;PMS3003;6337;49.556;25.594;2023-01-05T04:49:48;1.10;1.00;
12542;PMS3003;6337;49.556;25.594;2023-01-05T04:52:15;1.10;1.00;
12542;PMS3003;6337;49.556;25.594;2023-01-05T04:54:47;4.73;1.00;
12542;PMS3003;6337;49.556;25.594;2023-01-05T04:57:14;1.23;0.90;
12542;PMS3003;6337;49.556;25.594;2023-01-05T04:59:43;2.10;1.00;
12542;PMS3003;6337;49.556;25.594;2023-01-05T05:02:14;0.90;0.90;
12542;PMS3003;6337;49.556;25.594;2023-01-05T05:04:42;0.93;0.87;
12542;PMS3003;6337;49.556;25.594;2023-01-05T05:07:12;0.80;0.80;
12542;PMS3003;6337;49.556;25.594;2023-01-05T05:09:40;2.57;1.10;
12542;PMS3003;6337;49.556;25.594;2023-01-05T05:12:09;1.00;1.00;
12542;PMS3003;6337;49.556;25.594;2023-01-05T05:14:37;0.90;0.80;
12542;PMS3003;6337;49.556;25.594;2023-01-05T05:17:05;0.97;0.97;
12542;PMS3003;6337;49.556;25.594;2023-01-05T05:19:38;1.00;1.00;
12542;PMS3003;6337;49.556;25.594;2023-01-05T05:22:07;1.00;1.00;
12542;PMS3003;6337;49.556;25.594;2023-01-05T05:24:37;0.90;0.90;
12542;PMS3003;6337;49.556;25.594;2023-01-05T05:27:05;0.80;0.80;
12542;PMS3003;6337;49.556;25.594;2023-01-05T05:29:33;0.80;0.80;
12542;PMS3003;6337;49.556;25.594;2023-01-05T05:32:00;0.80;0.80;
12542;PMS3003;6337;49.556;25.594;2023-01-05T05:34:30;0.80;0.80;
12542;PMS3003;6337;49.556;25.594;2023-01-05T05:36:59;2.40;0.80;
12542;PMS3003;6337;49.556;25.594;2023-01-05T05:39:27;0.80;0.80;
12542;PMS3003;6337;49.556;25.594;2023-01-05T05:41:55;1.00;1.00;
12542;PMS3003;6337;49.556;25.594;2023-01-05T05:44:23;0.80;0.80;
12542;PMS3003;6337;49.556;25.594;2023-01-05T05:46:51;0.70;0.70;
12542;PMS3003;6337;49.556;25.594;2023-01-05T05:49:19;1.33;0.93;
12542;PMS3003;6337;49.556;25.594;2023-01-05T05:51:47;1.07;1.00;
12542;PMS3003;6337;49.556;25.594;2023-01-05T05:54:19;0.97;0.97;
12542;PMS3003;6337;49.556;25.594;2023-01-05T05:56:47;0.97;0.97;
12542;PMS3003;6337;49.556;25.594;2023-01-05T05:59:14;1.10;1.00;
12542;PMS3003;6337;49.556;25.594;2023-01-05T06:01:44;1.33;1.10;
12542;PMS3003;6337;49.556;25.594;2023-01-05T06:04:12;0.90;0.90;
12542;PMS3003;6337;49.556;25.594;2023-01-05T06:06:40;1.37;1.00;
12542;PMS3003;6337;49.556;25.594;2023-01-05T06:09:08;0.97;0.90;
12542;PMS3003;6337;49.556;25.594;2023-01-05T06:11:39;0.90;0.90;
12542;PMS3003;6337;49.556;25.594;2023-01-05T06:14:08;0.93;0.93;
12542;PMS3003;6337;49.556;25.594;2023-01-05T06:16:36;0.80;0.80;
12542;PMS3003;6337;49.556;25.594;2023-01-05T06:19:04;1.00;1.00;
12542;PMS3003;6337;49.556;25.594;2023-01-05T06:21:32;0.97;0.97;
12542;PMS3003;6337;49.556;25.594;2023-01-05T06:24:00;1.03;1.03;
12542;PMS3003;6337;49.556;25.594;2023-01-05T06:26:27;1.03;1.03;
12542;PMS3003;6337;49.556;25.594;2023-01-05T06:28:57;1.90;1.00;
12542;PMS3003;6337;49.556;25.594;2023-01-05T06:31:26;1.20;1.20;
12542;PMS3003;6337;49.556;25.594;2023-01-05T06:33:57;1.43;1.33;
12542;PMS3003;6337;49.556;25.594;2023-01-05T06:36:28;1.00;1.00;
12542;PMS3003;6337;49.556;25.594;2023-01-05T06:38:57;1.50;1.40;
12542;PMS3003;6337;49.556;25.594;2023-01-05T06:41:27;1.43;1.33;
12542;PMS3003;6337;49.556;25.594;2023-01-05T06:43:55;1.30;1.20;
12542;PMS3003;6337;49.556;25.594;2023-01-05T06:46:24;3.67;1.03;
12542;PMS3003;6337;49.556;25.594;2023-01-05T06:48:53;2.30;1.43;
12542;PMS3003;6337;49.556;25.594;2023-01-05T06:51:21;3.63;1.23;
12542;PMS3003;6337;49.556;25.594;2023-01-05T06:53:49;1.30;1.30;
12542;PMS3003;6337;49.556;25.594;2023-01-05T06:56:19;4.87;1.40;
12542;PMS3003;6337;49.556;25.594;2023-01-05T06:58:46;1.43;1.07;
12542;PMS3003;6337;49.556;25.594;2023-01-05T07:01:16;0.80;0.80;
12542;PMS3003;6337;49.556;25.594;2023-01-05T07:03:48;2.50;1.23;
12542;PMS3003;6337;49.556;25.594;2023-01-05T07:06:16;1.47;1.37;
12542;PMS3003;6337;49.556;25.594;2023-01-05T07:08:47;2.10;0.97;
12542;PMS3003;6337;49.556;25.594;2023-01-05T07:11:15;2.10;1.10;
12542;PMS3003;6337;49.556;25.594;2023-01-05T07:13:45;3.33;3.03;
12542;PMS3003;6337;49.556;25.594;2023-01-05T07:16:14;2.40;1.50;
12542;PMS3003;6337;49.556;25.594;2023-01-05T10:01:19;3.13;2.93;
12542;PMS3003;6337;49.556;25.594;2023-01-05T10:03:50;3.33;2.50;
12542;PMS3003;6337;49.556;25.594;2023-01-05T10:06:25;3.53;3.23;
12542;PMS3003;6337;49.556;25.594;2023-01-05T10:08:54;2.50;2.33;
12542;PMS3003;6337;49.556;25.594;2023-01-05T10:11:23;2.67;2.47;
12542;PMS3003;6337;49.556;25.594;2023-01-05T10:14:13;2.20;2.00;
12542;PMS3003;6337;49.556;25.594;2023-01-05T10:16:44;2.80;2.23;
12542;PMS3003;6337;49.556;25.594;2023-01-05T10:22:17;2.70;2.50;
12542;PMS3003;6337;49.556;25.594;2023-01-05T10:24:51;2.13;2.03;
12542;PMS3003;6337;49.556;25.594;2023-01-05T10:27:22;1.90;1.80;
12542;PMS3003;6337;49.556;25.594;2023-01-05T10:29:52;4.40;2.90;
12542;PMS3003;6337;49.556;25.594;2023-01-05T10:32:24;1.80;1.70;
12542;PMS3003;6337;49.556;25.594;2023-01-05T10:34:56;2.77;2.57;
12542;PMS3003;6337;49.556;25.594;2023-01-05T10:37:34;3.37;3.07;
12542;PMS3003;6337;49.556;25.594;2023-01-05T10:40:09;2.57;2.40;
12542;PMS3003;6337;49.556;25.594;2023-01-05T10:42:43;3.03;2.90;
12542;PMS3003;6337;49.556;25.594;2023-01-05T10:45:14;2.17;2.07;
12542;PMS3003;6337;49.556;25.594;2023-01-05T10:47:51;2.70;2.50;
12542;PMS3003;6337;49.556;25.594;2023-01-05T10:53:03;3.57;3.27;
12542;PMS3003;6337;49.556;25.594;2023-01-05T10:55:35;2.93;2.80;
12542;PMS3003;6337;49.556;25.594;2023-01-05T10:58:18;2.10;2.00;
12542;PMS3003;6337;49.556;25.594;2023-01-05T11:00:46;3.07;2.87;
12542;PMS3003;6337;49.556;25.594;2023-01-05T11:03:16;3.10;2.90;
12542;PMS3003;6337;49.556;25.594;2023-01-05T11:05:45;3.50;3.30;
12542;PMS3003;6337;49.556;25.594;2023-01-05T11:08:19;2.20;2.10;
12542;PMS3003;6337;49.556;25.594;2023-01-05T11:10:51;3.47;3.17;
12542;PMS3003;6337;49.556;25.594;2023-01-05T11:13:25;2.20;2.00;
12542;PMS3003;6337;49.556;25.594;2023-01-05T11:15:54;2.93;2.83;
12542;PMS3003;6337;49.556;25.594;2023-01-05T11:18:29;1.97;1.87;
12542;PMS3003;6337;49.556;25.594;2023-01-05T11:21:06;5.03;1.87;
12542;PMS3003;6337;49.556;25.594;2023-01-05T11:23:34;3.10;2.47;
12542;PMS3003;6337;49.556;25.594;2023-01-05T11:26:10;2.50;2.30;
12542;PMS3003;6337;49.556;25.594;2023-01-05T11:28:41;6.93;6.23;
12542;PMS3003;6337;49.556;25.594;2023-01-05T11:31:24;2.30;2.20;
12542;PMS3003;6337;49.556;25.594;2023-01-05T11:34:01;2.83;2.17;
12542;PMS3003;6337;49.556;25.594;2023-01-05T11:36:30;1.60;1.53;
12542;PMS3003;6337;49.556;25.594;2023-01-05T11:38:58;1.87;1.77;
12542;PMS3003;6337;49.556;25.594;2023-01-05T11:41:26;1.83;1.73;
12542;PMS3003;6337;49.556;25.594;2023-01-05T11:43:56;1.43;1.33;
12542;PMS3003;6337;49.556;25.594;2023-01-05T11:46:37;1.70;1.60;
12542;PMS3003;6337;49.556;25.594;2023-01-05T11:49:14;1.60;1.50;
12542;PMS3003;6337;49.556;25.594;2023-01-05T11:51:44;2.70;2.60;
12542;PMS3003;6337;49.556;25.594;2023-01-05T11:54:25;221.10;20.30;
12542;PMS3003;6337;49.556;25.594;2023-01-05T11:57:05;5.47;2.07;
12542;PMS3003;6337;49.556;25.594;2023-01-05T11:59:35;1.90;1.80;
12542;PMS3003;6337;49.556;25.594;2023-01-05T12:02:08;1.30;1.30;
12542;PMS3003;6337;49.556;25.594;2023-01-05T12:07:30;2.47;2.00;
12542;PMS3003;6337;49.556;25.594;2023-01-05T12:10:03;1.60;1.50;
12542;PMS3003;6337;49.556;25.594;2023-01-05T12:12:38;1.70;1.60;
12542;PMS3003;6337;49.556;25.594;2023-01-05T12:15:23;2.77;2.10;
12542;PMS3003;6337;49.556;25.594;2023-01-05T12:18:16;2.20;1.73;
12542;PMS3003;6337;49.556;25.594;2023-01-05T12:20:54;2.13;1.43;
12542;PMS3003;6337;49.556;25.594;2023-01-05T12:26:09;4.43;1.67;
12542;PMS3003;6337;49.556;25.594;2023-01-05T12:28:46;3.73;1.60;
12542;PMS3003;6337;49.556;25.594;2023-01-05T12:31:24;3.80;1.90;
12542;PMS3003;6337;49.556;25.594;2023-01-05T12:34:06;1.70;1.60;
12542;PMS3003;6337;49.556;25.594;2023-01-05T12:36:42;1.47;1.40;
12542;PMS3003;6337;49.556;25.594;2023-01-05T12:42:03;1.70;1.60;
12542;PMS3003;6337;49.556;25.594;2023-01-05T12:47:32;6.13;1.90;
12542;PMS3003;6337;49.556;25.594;2023-01-05T12:50:09;1.67;1.57;
12542;PMS3003;6337;49.556;25.594;2023-01-05T12:52:43;5.93;2.47;
12542;PMS3003;6337;49.556;25.594;2023-01-05T12:55:14;2.43;2.07;
12542;PMS3003;6337;49.556;25.594;2023-01-05T12:57:49;1.93;1.83;
12542;PMS3003;6337;49.556;25.594;2023-01-05T13:00:20;6.00;2.13;
12542;PMS3003;6337;49.556;25.594;2023-01-05T13:02:50;2.20;1.90;
12542;PMS3003;6337;49.556;25.594;2023-01-05T13:05:21;2.80;2.30;
12542;PMS3003;6337;49.556;25.594;2023-01-05T13:07:51;2.20;2.10;
12542;PMS3003;6337;49.556;25.594;2023-01-05T13:10:20;1.97;1.87;
12542;PMS3003;6337;49.556;25.594;2023-01-05T13:12:52;2.37;2.17;
12542;PMS3003;6337;49.556;25.594;2023-01-05T13:15:23;7.93;1.87;
12542;PMS3003;6337;49.556;25.594;2023-01-05T13:17:52;4.30;2.80;
12542;PMS3003;6337;49.556;25.594;2023-01-05T13:20:23;3.43;2.80;
12542;PMS3003;6337;49.556;25.594;2023-01-05T13:22:54;3.33;3.10;
12542;PMS3003;6337;49.556;25.594;2023-01-05T13:25:24;5.80;3.27;
12542;PMS3003;6337;49.556;25.594;2023-01-05T13:27:56;4.70;3.07;
12542;PMS3003;6337;49.556;25.594;2023-01-05T13:30:25;7.53;2.90;
12542;PMS3003;6337;49.556;25.594;2023-01-05T13:32:56;2.70;2.50;
12542;PMS3003;6337;49.556;25.594;2023-01-05T13:35:34;3.00;2.50;
12542;PMS3003;6337;49.556;25.594;2023-01-05T13:41:00;2.77;2.57;
12542;PMS3003;6337;49.556;25.594;2023-01-05T13:43:38;3.10;2.03;
12542;PMS3003;6337;49.556;25.594;2023-01-05T13:46:20;1.80;1.63;
12542;PMS3003;6337;49.556;25.594;2023-01-05T13:49:03;2.47;2.27;
12542;PMS3003;6337;49.556;25.594;2023-01-05T13:54:31;2.23;2.03;
12542;PMS3003;6337;49.556;25.594;2023-01-05T13:57:01;2.00;1.90;
12542;PMS3003;6337;49.556;25.594;2023-01-05T13:59:34;2.10;2.00;
12542;PMS3003;6337;49.556;25.594;2023-01-05T14:02:03;1.60;1.50;
12542;PMS3003;6337;49.556;25.594;2023-01-05T14:04:32;1.70;1.60;
12542;PMS3003;6337;49.556;25.594;2023-01-05T14:07:03;1.67;1.50;
12542;PMS3003;6337;49.556;25.594;2023-01-05T14:09:33;3.63;1.80;
12542;PMS3003;6337;49.556;25.594;2023-01-05T14:15:01;1.97;1.87;
12542;PMS3003;6337;49.556;25.594;2023-01-05T14:20:28;2.17;1.97;
12542;PMS3003;6337;49.556;25.594;2023-01-05T14:22:57;2.47;1.70;
12542;PMS3003;6337;49.556;25.594;2023-01-05T14:28:19;2.77;2.23;
12542;PMS3003;6337;49.556;25.594;2023-01-05T14:30:50;4.77;2.50;
12542;PMS3003;6337;49.556;25.594;2023-01-05T14:33:19;3.23;3.03;
12542;PMS3003;6337;49.556;25.594;2023-01-05T14:35:47;2.80;2.60;
12542;PMS3003;6337;49.556;25.594;2023-01-05T14:38:16;7.17;2.87;
12542;PMS3003;6337;49.556;25.594;2023-01-05T14:40:45;3.03;2.83;
12542;PMS3003;6337;49.556;25.594;2023-01-05T14:43:25;2.60;2.40;
12542;PMS3003;6337;49.556;25.594;2023-01-05T14:46:05;2.20;2.10;
12542;PMS3003;6337;49.556;25.594;2023-01-05T14:48:36;2.60;2.50;
12542;PMS3003;6337;49.556;25.594;2023-01-05T14:51:07;2.57;2.47;
12542;PMS3003;6337;49.556;25.594;2023-01-05T14:53:39;3.10;2.80;
12542;PMS3003;6337;49.556;25.594;2023-01-05T14:56:15;6.60;3.60;
12542;PMS3003;6337;49.556;25.594;2023-01-05T15:01:39;2.77;2.60;
12542;PMS3003;6337;49.556;25.594;2023-01-05T15:04:12;4.33;2.90;
12542;PMS3003;6337;49.556;25.594;2023-01-05T15:06:45;4.60;3.10;
12542;PMS3003;6337;49.556;25.594;2023-01-05T15:09:22;3.43;3.13;
12542;PMS3003;6337;49.556;25.594;2023-01-05T15:14:48;7.43;2.93;
12542;PMS3003;6337;49.556;25.594;2023-01-05T15:17:24;4.33;3.53;
12542;PMS3003;6337;49.556;25.594;2023-01-05T15:20:01;4.87;4.00;
12542;PMS3003;6337;49.556;25.594;2023-01-05T15:22:37;3.80;3.50;
12542;PMS3003;6337;49.556;25.594;2023-01-05T15:26:02;6.20;4.67;
12542;PMS3003;6337;49.556;25.594;2023-01-05T15:28:39;5.70;4.10;
12542;PMS3003;6337;49.556;25.594;2023-01-05T15:31:32;4.33;3.13;
12542;PMS3003;6337;49.556;25.594;2023-01-05T15:34:13;3.30;2.90;
12542;PMS3003;6337;49.556;25.594;2023-01-05T15:36:45;5.70;3.20;
12542;PMS3003;6337;49.556;25.594;2023-01-05T15:39:23;8.47;4.80;
12542;PMS3003;6337;49.556;25.594;2023-01-05T15:42:07;6.63;3.30;
12542;PMS3003;6337;49.556;25.594;2023-01-05T15:44:35;3.20;2.90;
12542;PMS3003;6337;49.556;25.594;2023-01-05T15:47:11;3.53;3.23;
12542;PMS3003;6337;49.556;25.594;2023-01-05T15:49:41;3.70;2.17;
12542;PMS3003;6337;49.556;25.594;2023-01-05T15:52:16;3.27;2.23;
12542;PMS3003;6337;49.556;25.594;2023-01-05T15:55:22;6.83;4.70;
12542;PMS3003;6337;49.556;25.594;2023-01-05T15:57:52;4.20;2.50;
12542;PMS3003;6337;49.556;25.594;2023-01-05T19:16:22;5.37;3.17;
12542;PMS3003;6337;49.556;25.594;2023-01-05T19:18:52;4.07;2.57;
12542;PMS3003;6337;49.556;25.594;2023-01-05T19:21:22;3.20;3.00;
12542;PMS3003;6337;49.556;25.594;2023-01-05T19:24:05;2.83;2.63;
12542;PMS3003;6337;49.556;25.594;2023-01-05T19:26:33;4.93;3.40;
12542;PMS3003;6337;49.556;25.594;2023-01-05T19:29:03;7.03;3.37;
12542;PMS3003;6337;49.556;25.594;2023-01-05T19:34:24;4.00;2.47;
12542;PMS3003;6337;49.556;25.594;2023-01-05T19:36:52;3.00;2.80;
12542;PMS3003;6337;49.556;25.594;2023-01-05T19:39:27;3.70;3.40;
12542;PMS3003;6337;49.556;25.594;2023-01-05T19:42:10;3.40;3.20;
12542;PMS3003;6337;49.556;25.594;2023-01-05T19:47:41;4.20;2.73;
12542;PMS3003;6337;49.556;25.594;2023-01-05T19:50:13;4.93;2.93;
12542;PMS3003;6337;49.556;25.594;2023-01-05T19:52:41;3.30;3.00;
12542;PMS3003;6337;49.556;25.594;2023-01-05T20:01:19;4.93;3.23;
12542;PMS3003;6337;49.556;25.594;2023-01-05T20:13:12;5.77;2.70;
12542;PMS3003;6337;49.556;25.594;2023-01-05T20:19:00;3.83;3.43;
12542;PMS3003;6337;49.556;25.594;2023-01-05T20:24:35;6.40;4.23;
12542;PMS3003;6337;49.556;25.594;2023-01-05T20:30:10;10.37;3.10;
12542;PMS3003;6337;49.556;25.594;2023-01-05T20:32:39;3.43;3.10;
12542;PMS3003;6337;49.556;25.594;2023-01-05T20:35:09;3.50;2.57;
12542;PMS3003;6337;49.556;25.594;2023-01-05T20:41:13;5.10;4.60;
12542;PMS3003;6337;49.556;25.594;2023-01-05T20:49:56;9.63;4.90;
12542;PMS3003;6337;49.556;25.594;2023-01-05T20:52:23;5.23;3.97;
12542;PMS3003;6337;49.556;25.594;2023-01-05T21:01:00;4.30;3.90;
12542;PMS3003;6337;49.556;25.594;2023-01-05T21:07:06;3.87;3.57;
12542;PMS3003;6337;49.556;25.594;2023-01-05T21:12:37;4.60;4.30;
12542;PMS3003;6337;49.556;25.594;2023-01-05T21:15:05;3.93;3.63;
12542;PMS3003;6337;49.556;25.594;2023-01-05T21:17:39;4.70;3.80;
12542;PMS3003;6337;49.556;25.594;2023-01-05T21:20:07;4.40;4.00;
12542;PMS3003;6337;49.556;25.594;2023-01-05T21:22:37;4.37;3.73;
12542;PMS3003;6337;49.556;25.594;2023-01-05T21:25:04;2.63;2.20;
12542;PMS3003;6337;49.556;25.594;2023-01-05T21:27:34;3.80;2.93;
12542;PMS3003;6337;49.556;25.594;2023-01-05T21:30:02;3.50;3.20;
12542;PMS3003;6337;49.556;25.594;2023-01-05T21:35:35;3.60;3.30;
12542;PMS3003;6337;49.556;25.594;2023-01-05T21:38:06;2.87;2.70;
12542;PMS3003;6337;49.556;25.594;2023-01-05T21:40:33;3.73;3.23;
12542;PMS3003;6337;49.556;25.594;2023-01-05T21:43:01;5.03;2.60;
12542;PMS3003;6337;49.556;25.594;2023-01-05T21:51:34;3.37;3.17;
12542;PMS3003;6337;49.556;25.594;2023-01-05T21:54:27;5.40;3.90;
12542;PMS3003;6337;49.556;25.594;2023-01-05T21:57:14;3.30;3.00;
12542;PMS3003;6337;49.556;25.594;2023-01-05T21:59:46;3.90;3.07;
12542;PMS3003;6337;49.556;25.594;2023-01-05T22:05:16;4.37;4.00;
12542;PMS3003;6337;49.556;25.594;2023-01-05T22:07:44;6.80;3.90;
12542;PMS3003;6337;49.556;25.594;2023-01-05T22:10:18;3.93;3.70;
12542;PMS3003;6337;49.556;25.594;2023-01-05T22:12:45;3.47;3.27;
12542;PMS3003;6337;49.556;25.594;2023-01-05T22:15:13;3.70;3.10;
12542;PMS3003;6337;49.556;25.594;2023-01-05T22:17:44;3.60;3.30;
12542;PMS3003;6337;49.556;25.594;2023-01-05T22:20:13;4.00;2.97;
12542;PMS3003;6337;49.556;25.594;2023-01-05T22:22:41;4.17;3.07;
12542;PMS3003;6337;49.556;25.594;2023-01-05T22:25:09;3.70;3.50;
12542;PMS3003;6337;49.556;25.594;2023-01-05T22:27:40;6.93;3.77;
12542;PMS3003;6337;49.556;25.594;2023-01-05T22:30:09;3.30;3.00;
12542;PMS3003;6337;49.556;25.594;2023-01-05T22:32:37;4.53;3.47;
12542;PMS3003;6337;49.556;25.594;2023-01-05T22:35:06;4.50;4.10;
12542;PMS3003;6337;49.556;25.594;2023-01-05T22:37:35;5.30;4.87;
12542;PMS3003;6337;49.556;25.594;2023-01-05T22:40:04;4.50;3.60;
12542;PMS3003;6337;49.556;25.594;2023-01-05T22:42:32;4.53;3.90;
12542;PMS3003;6337;49.556;25.594;2023-01-05T22:45:07;4.77;4.10;
12542;PMS3003;6337;49.556;25.594;2023-01-05T22:47:36;4.33;4.03;
12542;PMS3003;6337;49.556;25.594;2023-01-05T22:50:06;5.63;4.20;
12542;PMS3003;6337;49.556;25.594;2023-01-05T22:52:37;4.73;3.77;
12542;PMS3003;6337;49.556;25.594;2023-01-05T22:55:07;6.50;4.20;
12542;PMS3003;6337;49.556;25.594;2023-01-05T22:57:35;6.00;3.30;
12542;PMS3003;6337;49.556;25.594;2023-01-05T23:00:08;6.27;3.47;
12542;PMS3003;6337;49.556;25.594;2023-01-05T23:02:37;3.50;3.10;
12542;PMS3003;6337;49.556;25.594;2023-01-05T23:05:04;2.67;2.47;
12542;PMS3003;6337;49.556;25.594;2023-01-05T23:07:35;3.03;2.60;
12542;PMS3003;6337;49.556;25.594;2023-01-05T23:10:03;2.50;2.00;
12542;PMS3003;6337;49.556;25.594;2023-01-05T23:12:33;2.97;2.50;
12542;PMS3003;6337;49.556;25.594;2023-01-05T23:15:03;5.70;4.90;
12542;PMS3003;6337;49.556;25.594;2023-01-05T23:17:33;2.10;2.00;
12542;PMS3003;6337;49.556;25.594;2023-01-05T23:20:01;3.13;2.93;
12542;PMS3003;6337;49.556;25.594;2023-01-05T23:22:31;2.90;2.80;
12542;PMS3003;6337;49.556;25.594;2023-01-05T23:25:07;4.53;3.03;